sensor_id;sensor_type;location;lat;lon;timestamp;P1;durP1;ratioP1;P2;durP2;ratioP2
3571;SDS011;7958;53.024;12.970;2023-05-07T00:01:00;15.60;;;11.17;;
3571;SDS011;7958;53.024;12.970;2023-05-07T00:03:27;11.27;;;10.07;;
3571;SDS011;7958;53.024;12.970;2023-05-07T00:05:53;11.77;;;10.50;;
3571;SDS011;7958;53.024;12.970;2023-05-07T00:08:20;10.57;;;9.47;;
3571;SDS011;7958;53.024;12.970;2023-05-07T00:10:47;15.80;;;10.67;;
3571;SDS011;7958;53.024;12.970;2023-05-07T00:13:15;15.07;;;10.80;;
3571;SDS011;7958;53.024;12.970;2023-05-07T00:15:43;12.13;;;10.63;;
3571;SDS011;7958;53.024;12.970;2023-05-07T00:18:10;13.77;;;11.03;;
3571;SDS011;7958;53.024;12.970;2023-05-07T00:20:36;11.70;;;9.60;;
3571;SDS011;7958;53.024;12.970;2023-05-07T00:23:03;12.87;;;10.90;;
3571;SDS011;7958;53.024;12.970;2023-05-07T00:25:30;16.57;;;11.70;;
3571;SDS011;7958;53.024;12.970;2023-05-07T00:27:56;11.50;;;9.97;;
3571;SDS011;7958;53.024;12.970;2023-05-07T00:30:29;13.87;;;10.80;;
3571;SDS011;7958;53.024;12.970;2023-05-07T00:32:56;12.77;;;10.83;;
3571;SDS011;7958;53.024;12.970;2023-05-07T00:35:22;11.13;;;9.93;;
3571;SDS011;7958;53.024;12.970;2023-05-07T00:37:49;12.90;;;9.73;;
3571;SDS011;7958;53.024;12.970;2023-05-07T00:40:16;12.10;;;10.43;;
3571;SDS011;7958;53.024;12.970;2023-05-07T00:42:42;11.83;;;10.63;;
3571;SDS011;7958;53.024;12.970;2023-05-07T00:45:11;14.63;;;10.63;;
3571;SDS011;7958;53.024;12.970;2023-05-07T00:47:39;9.67;;;8.60;;
3571;SDS011;7958;53.024;12.970;2023-05-07T00:50:07;12.20;;;10.90;;
3571;SDS011;7958;53.024;12.970;2023-05-07T00:52:34;12.80;;;10.40;;
3571;SDS011;7958;53.024;12.970;2023-05-07T00:55:01;11.53;;;9.80;;
3571;SDS011;7958;53.024;12.970;2023-05-07T00:57:32;12.07;;;9.43;;
3571;SDS011;7958;53.024;12.970;2023-05-07T00:59:58;10.70;;;9.40;;
3571;SDS011;7958;53.024;12.970;2023-05-07T01:02:25;12.83;;;10.20;;
3571;SDS011;7958;53.024;12.970;2023-05-07T01:04:53;11.43;;;9.60;;
3571;SDS011;7958;53.024;12.970;2023-05-07T01:07:20;10.93;;;9.43;;
3571;SDS011;7958;53.024;12.970;2023-05-07T01:09:47;11.23;;;10.03;;
3571;SDS011;7958;53.024;12.970;2023-05-07T01:12:14;11.10;;;9.90;;
3571;SDS011;7958;53.024;12.970;2023-05-07T01:14:41;12.33;;;10.20;;
3571;SDS011;7958;53.024;12.970;2023-05-07T01:17:07;11.67;;;9.90;;
3571;SDS011;7958;53.024;12.970;2023-05-07T01:19:34;10.43;;;9.37;;
3571;SDS011;7958;53.024;12.970;2023-05-07T01:22:04;11.53;;;10.03;;
3571;SDS011;7958;53.024;12.970;2023-05-07T01:24:35;14.80;;;10.40;;
3571;SDS011;7958;53.024;12.970;2023-05-07T01:27:02;13.03;;;9.80;;
3571;SDS011;7958;53.024;12.970;2023-05-07T01:29:29;11.80;;;10.33;;
3571;SDS011;7958;53.024;12.970;2023-05-07T01:31:56;16.60;;;10.40;;
3571;SDS011;7958;53.024;12.970;2023-05-07T01:34:23;14.07;;;9.77;;
3571;SDS011;7958;53.024;12.970;2023-05-07T01:36:52;11.53;;;10.13;;
3571;SDS011;7958;53.024;12.970;2023-05-07T01:39:18;11.87;;;9.23;;
3571;SDS011;7958;53.024;12.970;2023-05-07T01:41:46;12.40;;;9.93;;
3571;SDS011;7958;53.024;12.970;2023-05-07T01:44:13;12.57;;;9.90;;
3571;SDS011;7958;53.024;12.970;2023-05-07T01:46:40;10.80;;;9.67;;
3571;SDS011;7958;53.024;12.970;2023-05-07T01:49:06;10.27;;;9.17;;
3571;SDS011;7958;53.024;12.970;2023-05-07T01:51:33;11.53;;;9.40;;
3571;SDS011;7958;53.024;12.970;2023-05-07T01:53:59;9.73;;;8.73;;
3571;SDS011;7958;53.024;12.970;2023-05-07T01:56:26;22.33;;;10.43;;
3571;SDS011;7958;53.024;12.970;2023-05-07T01:58:54;11.60;;;9.73;;
3571;SDS011;7958;53.024;12.970;2023-05-07T02:01:20;10.77;;;8.57;;
3571;SDS011;7958;53.024;12.970;2023-05-07T02:03:47;12.13;;;9.30;;
3571;SDS011;7958;53.024;12.970;2023-05-07T02:06:13;9.90;;;8.80;;
3571;SDS011;7958;53.024;12.970;2023-05-07T02:08:39;10.97;;;8.67;;
3571;SDS011;7958;53.024;12.970;2023-05-07T02:11:06;11.40;;;8.57;;
3571;SDS011;7958;53.024;12.970;2023-05-07T02:13:32;12.70;;;8.60;;
3571;SDS011;7958;53.024;12.970;2023-05-07T02:16:01;9.87;;;8.67;;
3571;SDS011;7958;53.024;12.970;2023-05-07T02:18:28;14.17;;;10.20;;
3571;SDS011;7958;53.024;12.970;2023-05-07T02:20:55;10.87;;;8.57;;
3571;SDS011;7958;53.024;12.970;2023-05-07T02:23:21;11.70;;;9.40;;
3571;SDS011;7958;53.024;12.970;2023-05-07T02:25:47;9.83;;;8.83;;
3571;SDS011;7958;53.024;12.970;2023-05-07T02:28:14;9.17;;;8.10;;
3571;SDS011;7958;53.024;12.970;2023-05-07T02:30:40;9.40;;;8.50;;
3571;SDS011;7958;53.024;12.970;2023-05-07T02:33:08;9.73;;;8.73;;
3571;SDS011;7958;53.024;12.970;2023-05-07T02:35:37;10.43;;;9.33;;
3571;SDS011;7958;53.024;12.970;2023-05-07T02:38:04;10.13;;;9.03;;
3571;SDS011;7958;53.024;12.970;2023-05-07T02:40:30;11.27;;;8.90;;
3571;SDS011;7958;53.024;12.970;2023-05-07T02:42:58;13.60;;;10.70;;
3571;SDS011;7958;53.024;12.970;2023-05-07T02:45:25;10.87;;;9.00;;
3571;SDS011;7958;53.024;12.970;2023-05-07T02:47:51;11.33;;;9.60;;
3571;SDS011;7958;53.024;12.970;2023-05-07T02:50:19;10.80;;;8.67;;
3571;SDS011;7958;53.024;12.970;2023-05-07T02:52:46;10.90;;;9.40;;
3571;SDS011;7958;53.024;12.970;2023-05-07T02:55:13;11.70;;;9.93;;
3571;SDS011;7958;53.024;12.970;2023-05-07T02:57:39;10.40;;;9.30;;
3571;SDS011;7958;53.024;12.970;2023-05-07T03:00:12;13.53;;;9.53;;
3571;SDS011;7958;53.024;12.970;2023-05-07T03:02:39;13.70;;;10.50;;
3571;SDS011;7958;53.024;12.970;2023-05-07T03:05:06;11.63;;;9.33;;
3571;SDS011;7958;53.024;12.970;2023-05-07T03:07:35;14.20;;;10.77;;
3571;SDS011;7958;53.024;12.970;2023-05-07T03:10:02;12.00;;;9.43;;
3571;SDS011;7958;53.024;12.970;2023-05-07T03:12:28;16.33;;;10.40;;
3571;SDS011;7958;53.024;12.970;2023-05-07T03:14:56;13.90;;;9.50;;
3571;SDS011;7958;53.024;12.970;2023-05-07T03:17:22;14.57;;;10.87;;
3571;SDS011;7958;53.024;12.970;2023-05-07T03:19:49;11.17;;;9.90;;
3571;SDS011;7958;53.024;12.970;2023-05-07T03:22:15;12.17;;;10.10;;
3571;SDS011;7958;53.024;12.970;2023-05-07T03:24:43;11.53;;;10.33;;
3571;SDS011;7958;53.024;12.970;2023-05-07T03:27:10;12.23;;;10.60;;
3571;SDS011;7958;53.024;12.970;2023-05-07T03:29:36;12.77;;;10.20;;
3571;SDS011;7958;53.024;12.970;2023-05-07T03:32:03;12.83;;;9.80;;
3571;SDS011;7958;53.024;12.970;2023-05-07T03:34:30;12.97;;;10.40;;
3571;SDS011;7958;53.024;12.970;2023-05-07T03:36:56;10.83;;;9.73;;
3571;SDS011;7958;53.024;12.970;2023-05-07T03:39:23;12.73;;;9.77;;
3571;SDS011;7958;53.024;12.970;2023-05-07T03:41:51;12.00;;;10.23;;
3571;SDS011;7958;53.024;12.970;2023-05-07T03:44:17;10.77;;;9.10;;
3571;SDS011;7958;53.024;12.970;2023-05-07T03:46:44;13.40;;;9.37;;
3571;SDS011;7958;53.024;12.970;2023-05-07T03:49:11;16.50;;;9.77;;
3571;SDS011;7958;53.024;12.970;2023-05-07T03:51:37;9.77;;;8.70;;
3571;SDS011;7958;53.024;12.970;2023-05-07T03:54:03;10.63;;;9.17;;
3571;SDS011;7958;53.024;12.970;2023-05-07T03:56:30;12.23;;;9.07;;
3571;SDS011;7958;53.024;12.970;2023-05-07T03:58:59;11.60;;;9.07;;
3571;SDS011;7958;53.024;12.970;2023-05-07T04:01:26;8.93;;;8.03;;
3571;SDS011;7958;53.024;12.970;2023-05-07T04:03:53;10.73;;;8.73;;
3571;SDS011;7958;53.024;12.970;2023-05-07T04:06:19;14.10;;;9.80;;
3571;SDS011;7958;53.024;12.970;2023-05-07T04:08:46;9.13;;;8.20;;
3571;SDS011;7958;53.024;12.970;2023-05-07T04:11:13;13.87;;;8.90;;
3571;SDS011;7958;53.024;12.970;2023-05-07T04:13:40;9.70;;;8.40;;
3571;SDS011;7958;53.024;12.970;2023-05-07T04:16:08;12.33;;;7.60;;
3571;SDS011;7958;53.024;12.970;2023-05-07T04:18:34;10.57;;;9.10;;
3571;SDS011;7958;53.024;12.970;2023-05-07T04:21:01;8.80;;;6.97;;
3571;SDS011;7958;53.024;12.970;2023-05-07T04:23:27;10.40;;;8.03;;
3571;SDS011;7958;53.024;12.970;2023-05-07T04:25:54;8.20;;;7.33;;
3571;SDS011;7958;53.024;12.970;2023-05-07T04:28:21;10.30;;;7.73;;
3571;SDS011;7958;53.024;12.970;2023-05-07T04:30:47;10.27;;;7.20;;
3571;SDS011;7958;53.024;12.970;2023-05-07T04:33:15;9.07;;;7.30;;
3571;SDS011;7958;53.024;12.970;2023-05-07T04:35:42;9.70;;;7.67;;
3571;SDS011;7958;53.024;12.970;2023-05-07T04:38:08;11.37;;;8.30;;
3571;SDS011;7958;53.024;12.970;2023-05-07T04:40:36;9.77;;;7.80;;
3571;SDS011;7958;53.024;12.970;2023-05-07T04:43:02;11.20;;;7.50;;
3571;SDS011;7958;53.024;12.970;2023-05-07T04:45:29;8.90;;;7.70;;
3571;SDS011;7958;53.024;12.970;2023-05-07T04:47:57;11.63;;;7.77;;
3571;SDS011;7958;53.024;12.970;2023-05-07T04:50:25;8.10;;;7.03;;
3571;SDS011;7958;53.024;12.970;2023-05-07T04:52:51;9.60;;;6.87;;
3571;SDS011;7958;53.024;12.970;2023-05-07T04:55:19;7.77;;;6.57;;
3571;SDS011;7958;53.024;12.970;2023-05-07T04:57:46;12.20;;;7.10;;
3571;SDS011;7958;53.024;12.970;2023-05-07T05:00:12;8.23;;;7.20;;
3571;SDS011;7958;53.024;12.970;2023-05-07T05:02:39;9.70;;;7.47;;
3571;SDS011;7958;53.024;12.970;2023-05-07T05:05:05;9.03;;;7.57;;
3571;SDS011;7958;53.024;12.970;2023-05-07T05:07:34;10.13;;;7.40;;
3571;SDS011;7958;53.024;12.970;2023-05-07T05:10:01;11.00;;;7.40;;
3571;SDS011;7958;53.024;12.970;2023-05-07T05:12:28;9.27;;;7.00;;
3571;SDS011;7958;53.024;12.970;2023-05-07T05:14:55;8.67;;;7.17;;
3571;SDS011;7958;53.024;12.970;2023-05-07T05:17:21;10.00;;;7.07;;
3571;SDS011;7958;53.024;12.970;2023-05-07T05:19:48;6.97;;;6.10;;
3571;SDS011;7958;53.024;12.970;2023-05-07T05:22:14;12.07;;;7.13;;
3571;SDS011;7958;53.024;12.970;2023-05-07T05:24:42;8.33;;;7.00;;
3571;SDS011;7958;53.024;12.970;2023-05-07T05:27:09;7.10;;;6.03;;
3571;SDS011;7958;53.024;12.970;2023-05-07T05:29:35;6.90;;;6.03;;
3571;SDS011;7958;53.024;12.970;2023-05-07T05:32:02;9.07;;;6.93;;
3571;SDS011;7958;53.024;12.970;2023-05-07T05:34:29;7.40;;;6.70;;
3571;SDS011;7958;53.024;12.970;2023-05-07T05:36:55;6.77;;;5.50;;
3571;SDS011;7958;53.024;12.970;2023-05-07T05:39:22;12.63;;;5.90;;
3571;SDS011;7958;53.024;12.970;2023-05-07T05:41:50;6.40;;;5.73;;
3571;SDS011;7958;53.024;12.970;2023-05-07T05:44:16;7.33;;;5.83;;
3571;SDS011;7958;53.024;12.970;2023-05-07T05:46:43;7.47;;;5.70;;
3571;SDS011;7958;53.024;12.970;2023-05-07T05:49:10;9.10;;;5.97;;
3571;SDS011;7958;53.024;12.970;2023-05-07T05:51:36;5.90;;;4.53;;
3571;SDS011;7958;53.024;12.970;2023-05-07T05:54:03;9.00;;;5.60;;
3571;SDS011;7958;53.024;12.970;2023-05-07T05:56:29;7.70;;;5.77;;
3571;SDS011;7958;53.024;12.970;2023-05-07T05:58:57;5.93;;;5.33;;
3571;SDS011;7958;53.024;12.970;2023-05-07T06:01:24;7.50;;;5.70;;
3571;SDS011;7958;53.024;12.970;2023-05-07T06:03:50;7.10;;;5.50;;
3571;SDS011;7958;53.024;12.970;2023-05-07T06:06:16;7.73;;;5.23;;
3571;SDS011;7958;53.024;12.970;2023-05-07T06:08:43;7.70;;;5.50;;
3571;SDS011;7958;53.024;12.970;2023-05-07T06:11:09;16.10;;;5.23;;
3571;SDS011;7958;53.024;12.970;2023-05-07T06:13:36;7.83;;;5.23;;
3571;SDS011;7958;53.024;12.970;2023-05-07T06:16:04;7.47;;;5.40;;
3571;SDS011;7958;53.024;12.970;2023-05-07T06:18:31;5.70;;;4.93;;
3571;SDS011;7958;53.024;12.970;2023-05-07T06:20:58;7.20;;;6.10;;
3571;SDS011;7958;53.024;12.970;2023-05-07T06:23:25;5.70;;;5.03;;
3571;SDS011;7958;53.024;12.970;2023-05-07T06:25:51;6.00;;;4.90;;
3571;SDS011;7958;53.024;12.970;2023-05-07T06:28:18;7.63;;;5.50;;
3571;SDS011;7958;53.024;12.970;2023-05-07T06:30:44;6.60;;;4.70;;
3571;SDS011;7958;53.024;12.970;2023-05-07T06:33:12;5.10;;;4.70;;
3571;SDS011;7958;53.024;12.970;2023-05-07T06:35:39;5.63;;;4.50;;
3571;SDS011;7958;53.024;12.970;2023-05-07T06:38:06;7.07;;;5.00;;
3571;SDS011;7958;53.024;12.970;2023-05-07T06:40:35;10.40;;;5.47;;
3571;SDS011;7958;53.024;12.970;2023-05-07T06:43:01;5.00;;;4.20;;
3571;SDS011;7958;53.024;12.970;2023-05-07T06:45:28;3.90;;;3.53;;
3571;SDS011;7958;53.024;12.970;2023-05-07T06:47:54;10.30;;;6.90;;
3571;SDS011;7958;53.024;12.970;2023-05-07T06:50:23;6.10;;;5.30;;
3571;SDS011;7958;53.024;12.970;2023-05-07T06:52:49;5.10;;;4.33;;
3571;SDS011;7958;53.024;12.970;2023-05-07T06:55:15;5.87;;;4.57;;
3571;SDS011;7958;53.024;12.970;2023-05-07T06:57:42;7.57;;;4.90;;
3571;SDS011;7958;53.024;12.970;2023-05-07T07:00:09;9.37;;;4.37;;
3571;SDS011;7958;53.024;12.970;2023-05-07T07:02:36;5.30;;;4.20;;
3571;SDS011;7958;53.024;12.970;2023-05-07T07:05:03;7.00;;;4.10;;
3571;SDS011;7958;53.024;12.970;2023-05-07T07:07:32;5.60;;;3.90;;
3571;SDS011;7958;53.024;12.970;2023-05-07T07:09:58;5.60;;;4.13;;
3571;SDS011;7958;53.024;12.970;2023-05-07T07:12:25;4.33;;;3.93;;
3571;SDS011;7958;53.024;12.970;2023-05-07T07:14:51;5.30;;;4.17;;
3571;SDS011;7958;53.024;12.970;2023-05-07T07:17:18;5.43;;;4.10;;
3571;SDS011;7958;53.024;12.970;2023-05-07T07:19:44;4.03;;;3.63;;
3571;SDS011;7958;53.024;12.970;2023-05-07T07:22:11;10.57;;;4.37;;
3571;SDS011;7958;53.024;12.970;2023-05-07T07:24:39;4.50;;;4.10;;
3571;SDS011;7958;53.024;12.970;2023-05-07T07:27:05;5.90;;;3.33;;
3571;SDS011;7958;53.024;12.970;2023-05-07T07:29:33;8.13;;;3.57;;
3571;SDS011;7958;53.024;12.970;2023-05-07T07:32:00;3.67;;;3.37;;
3571;SDS011;7958;53.024;12.970;2023-05-07T07:34:26;5.50;;;3.83;;
3571;SDS011;7958;53.024;12.970;2023-05-07T07:36:53;3.80;;;3.50;;
3571;SDS011;7958;53.024;12.970;2023-05-07T07:39:20;4.73;;;3.50;;
3571;SDS011;7958;53.024;12.970;2023-05-07T07:41:48;3.70;;;3.40;;
3571;SDS011;7958;53.024;12.970;2023-05-07T07:44:15;3.73;;;3.00;;
3571;SDS011;7958;53.024;12.970;2023-05-07T07:46:42;3.20;;;3.00;;
3571;SDS011;7958;53.024;12.970;2023-05-07T07:49:08;3.80;;;3.10;;
3571;SDS011;7958;53.024;12.970;2023-05-07T07:51:35;4.33;;;3.50;;
3571;SDS011;7958;53.024;12.970;2023-05-07T07:54:02;4.30;;;3.10;;
3571;SDS011;7958;53.024;12.970;2023-05-07T07:56:28;3.00;;;2.80;;
3571;SDS011;7958;53.024;12.970;2023-05-07T07:58:56;4.47;;;3.23;;
3571;SDS011;7958;53.024;12.970;2023-05-07T08:01:23;2.80;;;2.60;;
3571;SDS011;7958;53.024;12.970;2023-05-07T08:03:51;2.53;;;2.33;;
3571;SDS011;7958;53.024;12.970;2023-05-07T08:06:32;2.90;;;2.60;;
3571;SDS011;7958;53.024;12.970;2023-05-07T08:08:59;2.90;;;2.43;;
3571;SDS011;7958;53.024;12.970;2023-05-07T08:11:25;3.13;;;2.93;;
3571;SDS011;7958;53.024;12.970;2023-05-07T08:13:52;4.60;;;2.50;;
3571;SDS011;7958;53.024;12.970;2023-05-07T08:16:19;4.83;;;2.60;;
3571;SDS011;7958;53.024;12.970;2023-05-07T08:18:46;2.50;;;2.30;;
3571;SDS011;7958;53.024;12.970;2023-05-07T08:21:12;3.80;;;2.63;;
3571;SDS011;7958;53.024;12.970;2023-05-07T08:23:39;3.13;;;2.10;;
3571;SDS011;7958;53.024;12.970;2023-05-07T08:26:05;2.70;;;2.33;;
3571;SDS011;7958;53.024;12.970;2023-05-07T08:28:31;2.97;;;2.27;;
3571;SDS011;7958;53.024;12.970;2023-05-07T08:30:58;2.50;;;2.30;;
3571;SDS011;7958;53.024;12.970;2023-05-07T08:33:27;3.53;;;2.50;;
3571;SDS011;7958;53.024;12.970;2023-05-07T08:35:54;2.60;;;1.87;;
3571;SDS011;7958;53.024;12.970;2023-05-07T08:38:20;6.20;;;2.47;;
3571;SDS011;7958;53.024;12.970;2023-05-07T08:40:47;2.47;;;2.27;;
3571;SDS011;7958;53.024;12.970;2023-05-07T08:43:13;2.80;;;2.60;;
3571;SDS011;7958;53.024;12.970;2023-05-07T08:45:40;5.13;;;2.30;;
3571;SDS011;7958;53.024;12.970;2023-05-07T08:48:08;3.03;;;2.60;;
3571;SDS011;7958;53.024;12.970;2023-05-07T08:50:37;2.60;;;2.40;;
3571;SDS011;7958;53.024;12.970;2023-05-07T08:53:03;3.53;;;3.17;;
3571;SDS011;7958;53.024;12.970;2023-05-07T08:55:30;2.83;;;2.60;;
3571;SDS011;7958;53.024;12.970;2023-05-07T08:57:58;2.83;;;2.40;;
3571;SDS011;7958;53.024;12.970;2023-05-07T09:00:25;3.10;;;2.80;;
3571;SDS011;7958;53.024;12.970;2023-05-07T09:02:51;3.07;;;2.80;;
3571;SDS011;7958;53.024;12.970;2023-05-07T09:05:18;4.03;;;2.60;;
3571;SDS011;7958;53.024;12.970;2023-05-07T09:07:47;3.63;;;2.80;;
3571;SDS011;7958;53.024;12.970;2023-05-07T09:10:14;2.90;;;2.70;;
3571;SDS011;7958;53.024;12.970;2023-05-07T09:12:40;3.93;;;2.90;;
3571;SDS011;7958;53.024;12.970;2023-05-07T09:15:07;2.53;;;2.33;;
3571;SDS011;7958;53.024;12.970;2023-05-07T09:17:34;3.50;;;2.70;;
3571;SDS011;7958;53.024;12.970;2023-05-07T09:20:04;2.87;;;2.20;;
3571;SDS011;7958;53.024;12.970;2023-05-07T09:22:31;3.10;;;2.63;;
3571;SDS011;7958;53.024;12.970;2023-05-07T09:25:00;4.53;;;2.47;;
3571;SDS011;7958;53.024;12.970;2023-05-07T09:27:26;6.33;;;2.53;;
3571;SDS011;7958;53.024;12.970;2023-05-07T09:29:52;2.70;;;2.50;;
3571;SDS011;7958;53.024;12.970;2023-05-07T09:32:19;3.90;;;2.43;;
3571;SDS011;7958;53.024;12.970;2023-05-07T09:34:45;2.70;;;2.40;;
3571;SDS011;7958;53.024;12.970;2023-05-07T09:37:12;5.73;;;2.87;;
3571;SDS011;7958;53.024;12.970;2023-05-07T09:39:39;4.00;;;2.70;;
3571;SDS011;7958;53.024;12.970;2023-05-07T09:42:08;3.80;;;2.30;;
3571;SDS011;7958;53.024;12.970;2023-05-07T09:44:35;4.43;;;2.70;;
3571;SDS011;7958;53.024;12.970;2023-05-07T09:47:02;6.03;;;3.30;;
3571;SDS011;7958;53.024;12.970;2023-05-07T09:49:34;3.10;;;2.10;;
3571;SDS011;7958;53.024;12.970;2023-05-07T09:52:02;5.40;;;3.03;;
3571;SDS011;7958;53.024;12.970;2023-05-07T09:54:31;3.80;;;2.97;;
3571;SDS011;7958;53.024;12.970;2023-05-07T09:56:57;3.20;;;2.60;;
3571;SDS011;7958;53.024;12.970;2023-05-07T09:59:27;2.70;;;2.13;;
3571;SDS011;7958;53.024;12.970;2023-05-07T10:01:55;2.27;;;2.17;;
3571;SDS011;7958;53.024;12.970;2023-05-07T10:04:23;3.20;;;2.33;;
3571;SDS011;7958;53.024;12.970;2023-05-07T10:06:50;5.70;;;2.60;;
3571;SDS011;7958;53.024;12.970;2023-05-07T10:09:17;2.67;;;2.27;;
3571;SDS011;7958;53.024;12.970;2023-05-07T10:11:43;6.73;;;2.30;;
3571;SDS011;7958;53.024;12.970;2023-05-07T10:14:10;2.47;;;2.27;;
3571;SDS011;7958;53.024;12.970;2023-05-07T10:16:39;2.90;;;2.10;;
3571;SDS011;7958;53.024;12.970;2023-05-07T10:19:08;1.97;;;1.87;;
3571;SDS011;7958;53.024;12.970;2023-05-07T10:21:36;2.03;;;1.70;;
3571;SDS011;7958;53.024;12.970;2023-05-07T10:24:04;2.73;;;2.20;;
3571;SDS011;7958;53.024;12.970;2023-05-07T10:26:33;3.20;;;2.30;;
3571;SDS011;7958;53.024;12.970;2023-05-07T10:29:02;2.87;;;2.33;;
3571;SDS011;7958;53.024;12.970;2023-05-07T10:31:39;3.13;;;1.70;;
3571;SDS011;7958;53.024;12.970;2023-05-07T10:34:13;2.70;;;1.77;;
3571;SDS011;7958;53.024;12.970;2023-05-07T10:36:43;4.20;;;2.07;;
3571;SDS011;7958;53.024;12.970;2023-05-07T10:39:10;2.27;;;1.90;;
3571;SDS011;7958;53.024;12.970;2023-05-07T10:41:36;6.07;;;2.20;;
3571;SDS011;7958;53.024;12.970;2023-05-07T10:44:03;2.30;;;2.10;;
3571;SDS011;7958;53.024;12.970;2023-05-07T10:55:47;2.90;;;2.00;;
3571;SDS011;7958;53.024;12.970;2023-05-07T10:58:23;2.07;;;1.73;;
3571;SDS011;7958;53.024;12.970;2023-05-07T11:00:55;1.73;;;1.60;;
3571;SDS011;7958;53.024;12.970;2023-05-07T11:03:22;2.20;;;2.00;;
3571;SDS011;7958;53.024;12.970;2023-05-07T11:05:52;1.87;;;1.70;;
3571;SDS011;7958;53.024;12.970;2023-05-07T11:14:11;2.40;;;1.67;;
3571;SDS011;7958;53.024;12.970;2023-05-07T11:16:38;2.00;;;1.70;;
3571;SDS011;7958;53.024;12.970;2023-05-07T11:19:05;3.77;;;1.80;;
3571;SDS011;7958;53.024;12.970;2023-05-07T11:21:33;1.70;;;1.60;;
3571;SDS011;7958;53.024;12.970;2023-05-07T11:24:01;1.60;;;1.50;;
3571;SDS011;7958;53.024;12.970;2023-05-07T11:26:28;2.23;;;1.50;;
3571;SDS011;7958;53.024;12.970;2023-05-07T11:28:56;2.07;;;1.87;;
3571;SDS011;7958;53.024;12.970;2023-05-07T11:31:25;1.67;;;1.57;;
3571;SDS011;7958;53.024;12.970;2023-05-07T11:33:53;1.67;;;1.57;;
3571;SDS011;7958;53.024;12.970;2023-05-07T11:36:21;4.37;;;2.47;;
3571;SDS011;7958;53.024;12.970;2023-05-07T11:38:50;3.83;;;1.77;;
3571;SDS011;7958;53.024;12.970;2023-05-07T11:41:16;2.40;;;2.20;;
3571;SDS011;7958;53.024;12.970;2023-05-07T11:43:57;2.13;;;1.90;;
3571;SDS011;7958;53.024;12.970;2023-05-07T11:46:26;1.50;;;1.40;;
3571;SDS011;7958;53.024;12.970;2023-05-07T11:48:53;3.23;;;1.40;;
3571;SDS011;7958;53.024;12.970;2023-05-07T11:51:20;1.77;;;1.67;;
3571;SDS011;7958;53.024;12.970;2023-05-07T11:53:48;7.60;;;2.10;;
3571;SDS011;7958;53.024;12.970;2023-05-07T11:56:17;2.37;;;2.07;;
3571;SDS011;7958;53.024;12.970;2023-05-07T11:58:45;2.07;;;1.97;;
3571;SDS011;7958;53.024;12.970;2023-05-07T12:01:12;3.80;;;1.70;;
3571;SDS011;7958;53.024;12.970;2023-05-07T12:03:40;1.70;;;1.60;;
3571;SDS011;7958;53.024;12.970;2023-05-07T12:06:08;2.23;;;2.00;;
3571;SDS011;7958;53.024;12.970;2023-05-07T12:08:36;1.70;;;1.60;;
3571;SDS011;7958;53.024;12.970;2023-05-07T12:11:04;1.63;;;1.40;;
3571;SDS011;7958;53.024;12.970;2023-05-07T12:13:33;3.53;;;1.87;;
3571;SDS011;7958;53.024;12.970;2023-05-07T12:16:00;2.17;;;2.07;;
3571;SDS011;7958;53.024;12.970;2023-05-07T12:18:28;3.20;;;1.73;;
3571;SDS011;7958;53.024;12.970;2023-05-07T12:20:55;2.27;;;1.57;;
3571;SDS011;7958;53.024;12.970;2023-05-07T12:23:21;2.20;;;1.80;;
3571;SDS011;7958;53.024;12.970;2023-05-07T12:25:48;8.07;;;2.13;;
3571;SDS011;7958;53.024;12.970;2023-05-07T12:28:16;1.80;;;1.70;;
3571;SDS011;7958;53.024;12.970;2023-05-07T12:30:44;2.50;;;2.30;;
3571;SDS011;7958;53.024;12.970;2023-05-07T12:33:12;2.93;;;1.87;;
3571;SDS011;7958;53.024;12.970;2023-05-07T12:35:42;5.13;;;1.67;;
3571;SDS011;7958;53.024;12.970;2023-05-07T12:38:09;2.00;;;1.80;;
3571;SDS011;7958;53.024;12.970;2023-05-07T12:40:37;2.30;;;2.10;;
3571;SDS011;7958;53.024;12.970;2023-05-07T12:43:04;1.57;;;1.47;;
3571;SDS011;7958;53.024;12.970;2023-05-07T12:45:32;1.77;;;1.67;;
3571;SDS011;7958;53.024;12.970;2023-05-07T12:48:03;2.60;;;2.30;;
3571;SDS011;7958;53.024;12.970;2023-05-07T12:50:30;3.33;;;1.80;;
3571;SDS011;7958;53.024;12.970;2023-05-07T12:52:57;2.30;;;2.10;;
3571;SDS011;7958;53.024;12.970;2023-05-07T12:55:24;2.10;;;1.90;;
3571;SDS011;7958;53.024;12.970;2023-05-07T12:57:51;5.03;;;1.93;;
3571;SDS011;7958;53.024;12.970;2023-05-07T13:00:32;3.03;;;1.47;;
3571;SDS011;7958;53.024;12.970;2023-05-07T13:03:00;2.70;;;1.90;;
3571;SDS011;7958;53.024;12.970;2023-05-07T13:05:26;1.57;;;1.47;;
3571;SDS011;7958;53.024;12.970;2023-05-07T13:07:53;7.07;;;1.87;;
3571;SDS011;7958;53.024;12.970;2023-05-07T13:10:20;8.57;;;1.70;;
3571;SDS011;7958;53.024;12.970;2023-05-07T13:12:51;3.50;;;1.50;;
3571;SDS011;7958;53.024;12.970;2023-05-07T13:15:17;5.50;;;1.70;;
3571;SDS011;7958;53.024;12.970;2023-05-07T13:17:45;2.27;;;1.40;;
3571;SDS011;7958;53.024;12.970;2023-05-07T13:20:12;4.07;;;2.07;;
3571;SDS011;7958;53.024;12.970;2023-05-07T13:22:38;2.30;;;1.63;;
3571;SDS011;7958;53.024;12.970;2023-05-07T13:25:05;2.20;;;2.00;;
3571;SDS011;7958;53.024;12.970;2023-05-07T13:27:32;1.97;;;1.87;;
3571;SDS011;7958;53.024;12.970;2023-05-07T13:30:00;6.33;;;2.23;;
3571;SDS011;7958;53.024;12.970;2023-05-07T13:32:27;3.40;;;1.80;;
3571;SDS011;7958;53.024;12.970;2023-05-07T13:34:54;2.23;;;1.80;;
3571;SDS011;7958;53.024;12.970;2023-05-07T13:37:21;4.20;;;1.80;;
3571;SDS011;7958;53.024;12.970;2023-05-07T13:39:48;2.50;;;1.90;;
3571;SDS011;7958;53.024;12.970;2023-05-07T13:42:14;1.63;;;1.53;;
3571;SDS011;7958;53.024;12.970;2023-05-07T13:44:40;2.10;;;1.63;;
3571;SDS011;7958;53.024;12.970;2023-05-07T13:47:08;1.83;;;1.73;;
3571;SDS011;7958;53.024;12.970;2023-05-07T13:49:35;1.80;;;1.70;;
3571;SDS011;7958;53.024;12.970;2023-05-07T13:52:03;4.50;;;1.67;;
3571;SDS011;7958;53.024;12.970;2023-05-07T13:54:29;2.20;;;2.10;;
3571;SDS011;7958;53.024;12.970;2023-05-07T13:56:56;1.70;;;1.53;;
3571;SDS011;7958;53.024;12.970;2023-05-07T13:59:22;2.00;;;1.70;;
3571;SDS011;7958;53.024;12.970;2023-05-07T14:01:49;4.50;;;1.70;;
3571;SDS011;7958;53.024;12.970;2023-05-07T14:04:15;1.80;;;1.70;;
3571;SDS011;7958;53.024;12.970;2023-05-07T14:06:42;2.83;;;2.07;;
3571;SDS011;7958;53.024;12.970;2023-05-07T14:09:10;2.20;;;2.00;;
3571;SDS011;7958;53.024;12.970;2023-05-07T14:11:38;2.00;;;1.90;;
3571;SDS011;7958;53.024;12.970;2023-05-07T14:14:04;2.10;;;1.90;;
3571;SDS011;7958;53.024;12.970;2023-05-07T14:16:49;4.30;;;1.80;;
3571;SDS011;7958;53.024;12.970;2023-05-07T14:19:16;2.30;;;1.90;;
3571;SDS011;7958;53.024;12.970;2023-05-07T14:21:42;10.93;;;2.93;;
3571;SDS011;7958;53.024;12.970;2023-05-07T14:24:10;2.03;;;1.93;;
3571;SDS011;7958;53.024;12.970;2023-05-07T14:26:37;2.00;;;1.80;;
3571;SDS011;7958;53.024;12.970;2023-05-07T14:29:03;2.20;;;1.93;;
3571;SDS011;7958;53.024;12.970;2023-05-07T14:31:30;1.77;;;1.67;;
3571;SDS011;7958;53.024;12.970;2023-05-07T14:33:56;1.90;;;1.80;;
3571;SDS011;7958;53.024;12.970;2023-05-07T14:36:24;2.87;;;2.23;;
3571;SDS011;7958;53.024;12.970;2023-05-07T14:38:51;5.80;;;1.70;;
3571;SDS011;7958;53.024;12.970;2023-05-07T14:41:19;2.10;;;1.70;;
3571;SDS011;7958;53.024;12.970;2023-05-07T14:43:45;2.90;;;1.80;;
3571;SDS011;7958;53.024;12.970;2023-05-07T14:46:14;1.63;;;1.53;;
3571;SDS011;7958;53.024;12.970;2023-05-07T14:48:41;2.13;;;1.73;;
3571;SDS011;7958;53.024;12.970;2023-05-07T14:51:08;2.10;;;1.90;;
3571;SDS011;7958;53.024;12.970;2023-05-07T14:53:35;1.93;;;1.83;;
3571;SDS011;7958;53.024;12.970;2023-05-07T14:56:01;2.00;;;1.90;;
3571;SDS011;7958;53.024;12.970;2023-05-07T14:58:29;4.43;;;1.90;;
3571;SDS011;7958;53.024;12.970;2023-05-07T15:00:56;2.10;;;2.00;;
3571;SDS011;7958;53.024;12.970;2023-05-07T15:03:22;6.70;;;2.40;;
3571;SDS011;7958;53.024;12.970;2023-05-07T15:06:07;2.63;;;2.10;;
3571;SDS011;7958;53.024;12.970;2023-05-07T15:08:34;1.90;;;1.80;;
3571;SDS011;7958;53.024;12.970;2023-05-07T15:11:01;2.37;;;2.17;;